sensor_id;sensor_type;location;lat;lon;timestamp;P1;durP1;ratioP1;P2;durP2;ratioP2
70635;SDS011;58206;47.310;19.502;2022-09-25T00:01:35;11.88;;;6.10;;
70635;SDS011;58206;47.310;19.502;2022-09-25T00:04:19;10.88;;;6.57;;
70635;SDS011;58206;47.310;19.502;2022-09-25T00:07:04;14.17;;;7.50;;
70635;SDS011;58206;47.310;19.502;2022-09-25T00:09:48;11.95;;;6.68;;
70635;SDS011;58206;47.310;19.502;2022-09-25T00:12:33;12.23;;;6.30;;
70635;SDS011;58206;47.310;19.502;2022-09-25T00:15:19;10.93;;;6.68;;
70635;SDS011;58206;47.310;19.502;2022-09-25T00:18:03;13.15;;;7.00;;
70635;SDS011;58206;47.310;19.502;2022-09-25T00:20:47;12.93;;;7.03;;
70635;SDS011;58206;47.310;19.502;2022-09-25T00:23:43;12.15;;;6.32;;
70635;SDS011;58206;47.310;19.502;2022-09-25T00:26:29;12.20;;;6.78;;
70635;SDS011;58206;47.310;19.502;2022-09-25T00:29:15;11.60;;;6.50;;
70635;SDS011;58206;47.310;19.502;2022-09-25T00:32:01;13.02;;;7.20;;
70635;SDS011;58206;47.310;19.502;2022-09-25T00:34:45;10.70;;;6.70;;
70635;SDS011;58206;47.310;19.502;2022-09-25T00:37:32;13.32;;;7.18;;
70635;SDS011;58206;47.310;19.502;2022-09-25T00:40:16;11.43;;;6.88;;
70635;SDS011;58206;47.310;19.502;2022-09-25T00:43:04;12.45;;;6.88;;
70635;SDS011;58206;47.310;19.502;2022-09-25T00:45:48;11.02;;;6.20;;
70635;SDS011;58206;47.310;19.502;2022-09-25T00:48:33;12.17;;;6.77;;
70635;SDS011;58206;47.310;19.502;2022-09-25T00:51:18;10.35;;;6.53;;
70635;SDS011;58206;47.310;19.502;2022-09-25T00:54:04;12.25;;;6.88;;
70635;SDS011;58206;47.310;19.502;2022-09-25T00:56:50;13.70;;;7.07;;
70635;SDS011;58206;47.310;19.502;2022-09-25T00:59:36;12.13;;;7.03;;
70635;SDS011;58206;47.310;19.502;2022-09-25T01:02:23;11.37;;;7.07;;
70635;SDS011;58206;47.310;19.502;2022-09-25T01:05:10;11.73;;;6.93;;
70635;SDS011;58206;47.310;19.502;2022-09-25T01:07:55;13.70;;;7.65;;
70635;SDS011;58206;47.310;19.502;2022-09-25T01:10:40;11.95;;;6.63;;
70635;SDS011;58206;47.310;19.502;2022-09-25T01:13:25;12.68;;;6.20;;
70635;SDS011;58206;47.310;19.502;2022-09-25T01:16:23;11.83;;;6.40;;
70635;SDS011;58206;47.310;19.502;2022-09-25T01:24:43;11.75;;;5.55;;
70635;SDS011;58206;47.310;19.502;2022-09-25T01:30:22;11.07;;;5.57;;
70635;SDS011;58206;47.310;19.502;2022-09-25T01:33:09;10.57;;;5.97;;
70635;SDS011;58206;47.310;19.502;2022-09-25T01:36:12;12.35;;;6.65;;
70635;SDS011;58206;47.310;19.502;2022-09-25T01:39:17;11.07;;;6.65;;
70635;SDS011;58206;47.310;19.502;2022-09-25T01:42:12;11.50;;;7.13;;
70635;SDS011;58206;47.310;19.502;2022-09-25T01:45:04;10.60;;;5.50;;
70635;SDS011;58206;47.310;19.502;2022-09-25T01:47:50;9.40;;;5.45;;
70635;SDS011;58206;47.310;19.502;2022-09-25T01:50:58;10.50;;;5.60;;
70635;SDS011;58206;47.310;19.502;2022-09-25T01:53:43;9.13;;;5.03;;
70635;SDS011;58206;47.310;19.502;2022-09-25T01:56:30;9.82;;;5.70;;
70635;SDS011;58206;47.310;19.502;2022-09-25T01:59:23;9.07;;;4.97;;
70635;SDS011;58206;47.310;19.502;2022-09-25T02:02:10;9.43;;;4.93;;
70635;SDS011;58206;47.310;19.502;2022-09-25T02:04:57;9.05;;;5.10;;
70635;SDS011;58206;47.310;19.502;2022-09-25T02:07:51;10.38;;;5.10;;
70635;SDS011;58206;47.310;19.502;2022-09-25T02:10:42;8.30;;;4.93;;
70635;SDS011;58206;47.310;19.502;2022-09-25T02:13:31;10.97;;;5.50;;
70635;SDS011;58206;47.310;19.502;2022-09-25T02:16:28;9.52;;;5.30;;
70635;SDS011;58206;47.310;19.502;2022-09-25T02:19:14;10.27;;;5.47;;
70635;SDS011;58206;47.310;19.502;2022-09-25T02:22:23;13.68;;;5.40;;
70635;SDS011;58206;47.310;19.502;2022-09-25T02:25:11;8.93;;;5.43;;
70635;SDS011;58206;47.310;19.502;2022-09-25T02:27:58;11.07;;;5.63;;
70635;SDS011;58206;47.310;19.502;2022-09-25T02:30:43;10.05;;;5.40;;
70635;SDS011;58206;47.310;19.502;2022-09-25T02:33:28;9.07;;;5.00;;
70635;SDS011;58206;47.310;19.502;2022-09-25T02:36:16;8.95;;;5.18;;
70635;SDS011;58206;47.310;19.502;2022-09-25T02:39:02;10.77;;;5.30;;
70635;SDS011;58206;47.310;19.502;2022-09-25T02:53:29;8.60;;;5.05;;
70635;SDS011;58206;47.310;19.502;2022-09-25T02:56:22;8.90;;;5.00;;
70635;SDS011;58206;47.310;19.502;2022-09-25T02:59:09;10.00;;;5.60;;
70635;SDS011;58206;47.310;19.502;2022-09-25T03:01:58;9.93;;;5.20;;
70635;SDS011;58206;47.310;19.502;2022-09-25T03:04:43;10.65;;;5.70;;
70635;SDS011;58206;47.310;19.502;2022-09-25T03:07:28;11.73;;;6.15;;
70635;SDS011;58206;47.310;19.502;2022-09-25T03:10:12;8.77;;;5.67;;
70635;SDS011;58206;47.310;19.502;2022-09-25T03:13:01;9.32;;;5.68;;
70635;SDS011;58206;47.310;19.502;2022-09-25T03:16:00;10.63;;;5.28;;
70635;SDS011;58206;47.310;19.502;2022-09-25T03:18:46;10.18;;;5.70;;
70635;SDS011;58206;47.310;19.502;2022-09-25T03:21:30;10.07;;;6.43;;
70635;SDS011;58206;47.310;19.502;2022-09-25T03:24:16;9.87;;;6.50;;
70635;SDS011;58206;47.310;19.502;2022-09-25T03:27:00;11.50;;;6.50;;
70635;SDS011;58206;47.310;19.502;2022-09-25T03:29:44;12.30;;;6.60;;
70635;SDS011;58206;47.310;19.502;2022-09-25T03:32:29;12.68;;;6.70;;
70635;SDS011;58206;47.310;19.502;2022-09-25T03:35:13;10.73;;;6.47;;
70635;SDS011;58206;47.310;19.502;2022-09-25T03:37:58;11.30;;;6.77;;
70635;SDS011;58206;47.310;19.502;2022-09-25T03:40:43;9.75;;;6.47;;
70635;SDS011;58206;47.310;19.502;2022-09-25T03:43:27;11.18;;;6.80;;
70635;SDS011;58206;47.310;19.502;2022-09-25T03:46:21;10.43;;;6.63;;
70635;SDS011;58206;47.310;19.502;2022-09-25T03:49:06;11.98;;;7.10;;
70635;SDS011;58206;47.310;19.502;2022-09-25T03:51:50;10.67;;;6.70;;
70635;SDS011;58206;47.310;19.502;2022-09-25T03:54:34;11.90;;;6.93;;
70635;SDS011;58206;47.310;19.502;2022-09-25T03:57:19;12.70;;;7.18;;
70635;SDS011;58206;47.310;19.502;2022-09-25T04:00:04;11.25;;;7.25;;
70635;SDS011;58206;47.310;19.502;2022-09-25T04:02:56;11.35;;;7.43;;
70635;SDS011;58206;47.310;19.502;2022-09-25T04:05:42;12.37;;;7.47;;
70635;SDS011;58206;47.310;19.502;2022-09-25T04:08:27;13.43;;;7.47;;
70635;SDS011;58206;47.310;19.502;2022-09-25T04:11:11;11.65;;;7.32;;
70635;SDS011;58206;47.310;19.502;2022-09-25T04:13:56;11.73;;;6.90;;
70635;SDS011;58206;47.310;19.502;2022-09-25T04:16:40;10.68;;;6.72;;
70635;SDS011;58206;47.310;19.502;2022-09-25T04:19:25;10.33;;;6.10;;
70635;SDS011;58206;47.310;19.502;2022-09-25T04:22:09;10.27;;;6.40;;
70635;SDS011;58206;47.310;19.502;2022-09-25T04:24:54;10.52;;;6.03;;
70635;SDS011;58206;47.310;19.502;2022-09-25T04:27:38;11.00;;;7.10;;
70635;SDS011;58206;47.310;19.502;2022-09-25T04:30:22;13.52;;;6.85;;
70635;SDS011;58206;47.310;19.502;2022-09-25T04:33:08;12.87;;;7.30;;
70635;SDS011;58206;47.310;19.502;2022-09-25T04:36:10;12.10;;;6.90;;
70635;SDS011;58206;47.310;19.502;2022-09-25T04:38:55;11.80;;;6.97;;
70635;SDS011;58206;47.310;19.502;2022-09-25T04:41:39;10.85;;;6.97;;
70635;SDS011;58206;47.310;19.502;2022-09-25T04:44:24;11.07;;;6.88;;
70635;SDS011;58206;47.310;19.502;2022-09-25T04:47:09;12.83;;;7.90;;
70635;SDS011;58206;47.310;19.502;2022-09-25T04:49:54;11.38;;;7.28;;
70635;SDS011;58206;47.310;19.502;2022-09-25T04:52:39;12.07;;;7.50;;
70635;SDS011;58206;47.310;19.502;2022-09-25T04:55:23;11.85;;;7.47;;
70635;SDS011;58206;47.310;19.502;2022-09-25T04:58:08;11.10;;;7.25;;
70635;SDS011;58206;47.310;19.502;2022-09-25T05:00:53;12.13;;;7.27;;
70635;SDS011;58206;47.310;19.502;2022-09-25T05:03:38;11.02;;;7.40;;
70635;SDS011;58206;47.310;19.502;2022-09-25T05:06:22;12.07;;;6.38;;
70635;SDS011;58206;47.310;19.502;2022-09-25T05:09:06;9.40;;;6.05;;
70635;SDS011;58206;47.310;19.502;2022-09-25T05:11:51;11.52;;;7.25;;
70635;SDS011;58206;47.310;19.502;2022-09-25T05:14:35;13.77;;;7.60;;
70635;SDS011;58206;47.310;19.502;2022-09-25T05:17:24;13.35;;;9.15;;
70635;SDS011;58206;47.310;19.502;2022-09-25T05:20:09;13.98;;;8.15;;
70635;SDS011;58206;47.310;19.502;2022-09-25T05:22:54;14.48;;;8.38;;
70635;SDS011;58206;47.310;19.502;2022-09-25T05:25:39;14.32;;;8.23;;
70635;SDS011;58206;47.310;19.502;2022-09-25T05:28:23;10.80;;;6.43;;
70635;SDS011;58206;47.310;19.502;2022-09-25T05:31:08;11.13;;;5.93;;
70635;SDS011;58206;47.310;19.502;2022-09-25T05:33:52;13.50;;;7.22;;
70635;SDS011;58206;47.310;19.502;2022-09-25T05:36:37;16.58;;;9.48;;
70635;SDS011;58206;47.310;19.502;2022-09-25T05:39:21;22.15;;;12.38;;
70635;SDS011;58206;47.310;19.502;2022-09-25T05:42:06;22.63;;;13.13;;
70635;SDS011;58206;47.310;19.502;2022-09-25T05:44:50;18.90;;;12.13;;
70635;SDS011;58206;47.310;19.502;2022-09-25T05:47:34;15.98;;;9.98;;
70635;SDS011;58206;47.310;19.502;2022-09-25T05:50:19;16.75;;;9.20;;
70635;SDS011;58206;47.310;19.502;2022-09-25T05:53:03;13.75;;;8.05;;
70635;SDS011;58206;47.310;19.502;2022-09-25T05:55:51;15.20;;;8.43;;
70635;SDS011;58206;47.310;19.502;2022-09-25T05:58:36;14.05;;;6.80;;
70635;SDS011;58206;47.310;19.502;2022-09-25T06:01:21;10.38;;;5.85;;
70635;SDS011;58206;47.310;19.502;2022-09-25T06:04:05;8.57;;;5.07;;
70635;SDS011;58206;47.310;19.502;2022-09-25T06:06:50;9.95;;;5.22;;
70635;SDS011;58206;47.310;19.502;2022-09-25T06:09:35;9.00;;;5.50;;
70635;SDS011;58206;47.310;19.502;2022-09-25T06:12:20;9.13;;;5.28;;
70635;SDS011;58206;47.310;19.502;2022-09-25T06:15:06;8.82;;;5.47;;
70635;SDS011;58206;47.310;19.502;2022-09-25T06:17:51;9.75;;;5.20;;
70635;SDS011;58206;47.310;19.502;2022-09-25T06:20:35;8.63;;;5.35;;
70635;SDS011;58206;47.310;19.502;2022-09-25T06:23:20;9.70;;;4.93;;
70635;SDS011;58206;47.310;19.502;2022-09-25T06:26:05;10.65;;;5.45;;
70635;SDS011;58206;47.310;19.502;2022-09-25T06:28:50;9.75;;;4.68;;
70635;SDS011;58206;47.310;19.502;2022-09-25T06:31:34;8.65;;;4.90;;
70635;SDS011;58206;47.310;19.502;2022-09-25T06:34:18;8.05;;;4.78;;
70635;SDS011;58206;47.310;19.502;2022-09-25T06:37:03;10.27;;;5.30;;
70635;SDS011;58206;47.310;19.502;2022-09-25T06:39:47;8.65;;;5.00;;
70635;SDS011;58206;47.310;19.502;2022-09-25T06:42:32;10.65;;;5.10;;
70635;SDS011;58206;47.310;19.502;2022-09-25T06:45:18;9.27;;;4.53;;
70635;SDS011;58206;47.310;19.502;2022-09-25T06:48:03;8.35;;;4.95;;
70635;SDS011;58206;47.310;19.502;2022-09-25T06:50:49;8.63;;;4.30;;
70635;SDS011;58206;47.310;19.502;2022-09-25T06:53:35;8.00;;;4.07;;
70635;SDS011;58206;47.310;19.502;2022-09-25T06:56:19;7.90;;;4.32;;
70635;SDS011;58206;47.310;19.502;2022-09-25T06:59:04;7.68;;;4.10;;
70635;SDS011;58206;47.310;19.502;2022-09-25T07:01:48;7.45;;;4.05;;
70635;SDS011;58206;47.310;19.502;2022-09-25T07:04:32;9.17;;;4.20;;
70635;SDS011;58206;47.310;19.502;2022-09-25T07:07:17;7.20;;;3.80;;
70635;SDS011;58206;47.310;19.502;2022-09-25T07:10:07;7.30;;;4.00;;
70635;SDS011;58206;47.310;19.502;2022-09-25T07:12:51;7.75;;;4.32;;
70635;SDS011;58206;47.310;19.502;2022-09-25T07:15:36;8.27;;;3.58;;
70635;SDS011;58206;47.310;19.502;2022-09-25T07:18:20;8.07;;;4.00;;
70635;SDS011;58206;47.310;19.502;2022-09-25T07:21:12;8.02;;;3.60;;
70635;SDS011;58206;47.310;19.502;2022-09-25T07:23:57;7.32;;;3.53;;
70635;SDS011;58206;47.310;19.502;2022-09-25T07:26:41;9.60;;;3.50;;
70635;SDS011;58206;47.310;19.502;2022-09-25T07:29:26;6.55;;;3.60;;
70635;SDS011;58206;47.310;19.502;2022-09-25T07:32:10;9.40;;;3.70;;
70635;SDS011;58206;47.310;19.502;2022-09-25T07:34:54;8.30;;;3.58;;
70635;SDS011;58206;47.310;19.502;2022-09-25T07:37:39;8.35;;;4.22;;
70635;SDS011;58206;47.310;19.502;2022-09-25T07:40:23;7.53;;;3.88;;
70635;SDS011;58206;47.310;19.502;2022-09-25T07:43:10;7.40;;;3.30;;
70635;SDS011;58206;47.310;19.502;2022-09-25T07:45:54;10.10;;;3.80;;
70635;SDS011;58206;47.310;19.502;2022-09-25T07:48:38;8.45;;;3.90;;
70635;SDS011;58206;47.310;19.502;2022-09-25T07:51:23;8.60;;;3.97;;
70635;SDS011;58206;47.310;19.502;2022-09-25T07:54:09;7.90;;;3.85;;
70635;SDS011;58206;47.310;19.502;2022-09-25T07:56:53;8.48;;;3.40;;
70635;SDS011;58206;47.310;19.502;2022-09-25T07:59:38;6.83;;;3.40;;
70635;SDS011;58206;47.310;19.502;2022-09-25T08:02:23;7.47;;;3.30;;
70635;SDS011;58206;47.310;19.502;2022-09-25T08:05:07;7.75;;;4.10;;
70635;SDS011;58206;47.310;19.502;2022-09-25T08:07:52;8.00;;;3.40;;
70635;SDS011;58206;47.310;19.502;2022-09-25T08:10:36;6.20;;;3.00;;
70635;SDS011;58206;47.310;19.502;2022-09-25T08:13:21;7.17;;;3.20;;
70635;SDS011;58206;47.310;19.502;2022-09-25T08:16:09;7.70;;;3.47;;
70635;SDS011;58206;47.310;19.502;2022-09-25T08:18:57;6.95;;;3.20;;
70635;SDS011;58206;47.310;19.502;2022-09-25T08:21:41;7.10;;;2.58;;
70635;SDS011;58206;47.310;19.502;2022-09-25T08:24:25;6.40;;;3.33;;
70635;SDS011;58206;47.310;19.502;2022-09-25T08:27:10;5.57;;;2.37;;
70635;SDS011;58206;47.310;19.502;2022-09-25T08:29:54;6.82;;;2.63;;
70635;SDS011;58206;47.310;19.502;2022-09-25T08:32:38;8.60;;;2.90;;
70635;SDS011;58206;47.310;19.502;2022-09-25T08:35:24;6.53;;;2.65;;
70635;SDS011;58206;47.310;19.502;2022-09-25T08:38:11;6.32;;;2.10;;
70635;SDS011;58206;47.310;19.502;2022-09-25T08:41:00;6.63;;;2.30;;
70635;SDS011;58206;47.310;19.502;2022-09-25T08:44:10;6.43;;;2.15;;
70635;SDS011;58206;47.310;19.502;2022-09-25T08:52:52;5.82;;;2.30;;
70635;SDS011;58206;47.310;19.502;2022-09-25T08:55:39;25.17;;;9.20;;
70635;SDS011;58206;47.310;19.502;2022-09-25T09:01:47;14.77;;;6.43;;
70635;SDS011;58206;47.310;19.502;2022-09-25T09:04:37;8.77;;;3.72;;
70635;SDS011;58206;47.310;19.502;2022-09-25T09:07:26;21.67;;;11.32;;
70635;SDS011;58206;47.310;19.502;2022-09-25T09:12:59;5.55;;;2.10;;
70635;SDS011;58206;47.310;19.502;2022-09-25T09:15:48;19.85;;;9.77;;
70635;SDS011;58206;47.310;19.502;2022-09-25T09:18:36;8.30;;;3.80;;
70635;SDS011;58206;47.310;19.502;2022-09-25T09:24:16;18.07;;;13.63;;
70635;SDS011;58206;47.310;19.502;2022-09-25T09:41:57;4.72;;;1.55;;
70635;SDS011;58206;47.310;19.502;2022-09-25T09:44:46;4.72;;;1.80;;
70635;SDS011;58206;47.310;19.502;2022-09-25T09:47:37;5.22;;;2.38;;
70635;SDS011;58206;47.310;19.502;2022-09-25T09:53:15;7.27;;;4.13;;
70635;SDS011;58206;47.310;19.502;2022-09-25T09:56:08;9.32;;;4.90;;
70635;SDS011;58206;47.310;19.502;2022-09-25T10:01:38;6.75;;;4.28;;
70635;SDS011;58206;47.310;19.502;2022-09-25T10:04:24;7.63;;;3.55;;
70635;SDS011;58206;47.310;19.502;2022-09-25T10:07:13;7.00;;;4.47;;
70635;SDS011;58206;47.310;19.502;2022-09-25T10:09:58;6.38;;;3.85;;
70635;SDS011;58206;47.310;19.502;2022-09-25T10:12:44;5.97;;;2.72;;
70635;SDS011;58206;47.310;19.502;2022-09-25T10:15:31;7.80;;;3.38;;
70635;SDS011;58206;47.310;19.502;2022-09-25T10:18:17;6.40;;;3.10;;
70635;SDS011;58206;47.310;19.502;2022-09-25T10:21:04;8.97;;;4.93;;
70635;SDS011;58206;47.310;19.502;2022-09-25T10:23:53;7.53;;;3.70;;
70635;SDS011;58206;47.310;19.502;2022-09-25T10:26:38;6.32;;;2.67;;
70635;SDS011;58206;47.310;19.502;2022-09-25T10:29:26;5.10;;;2.10;;
70635;SDS011;58206;47.310;19.502;2022-09-25T10:32:10;5.60;;;2.10;;
70635;SDS011;58206;47.310;19.502;2022-09-25T10:34:55;4.93;;;1.83;;
70635;SDS011;58206;47.310;19.502;2022-09-25T10:37:39;5.10;;;2.17;;
70635;SDS011;58206;47.310;19.502;2022-09-25T10:40:28;7.45;;;3.40;;
70635;SDS011;58206;47.310;19.502;2022-09-25T10:43:15;6.07;;;2.58;;
70635;SDS011;58206;47.310;19.502;2022-09-25T10:48:48;10.90;;;3.20;;
70635;SDS011;58206;47.310;19.502;2022-09-25T10:52:08;8.05;;;4.32;;
70635;SDS011;58206;47.310;19.502;2022-09-25T10:55:05;5.85;;;3.25;;
70635;SDS011;58206;47.310;19.502;2022-09-25T10:58:12;7.10;;;4.15;;
70635;SDS011;58206;47.310;19.502;2022-09-25T11:00:58;5.63;;;2.65;;
70635;SDS011;58206;47.310;19.502;2022-09-25T11:06:32;33.35;;;24.08;;
70635;SDS011;58206;47.310;19.502;2022-09-25T11:09:19;24.15;;;17.30;;
70635;SDS011;58206;47.310;19.502;2022-09-25T11:12:06;14.05;;;9.90;;
70635;SDS011;58206;47.310;19.502;2022-09-25T11:15:11;8.85;;;5.45;;
70635;SDS011;58206;47.310;19.502;2022-09-25T11:17:58;11.17;;;7.53;;
70635;SDS011;58206;47.310;19.502;2022-09-25T11:20:43;18.55;;;13.10;;
70635;SDS011;58206;47.310;19.502;2022-09-25T11:26:53;12.18;;;6.80;;
70635;SDS011;58206;47.310;19.502;2022-09-25T11:35:26;6.38;;;3.20;;
70635;SDS011;58206;47.310;19.502;2022-09-25T11:38:28;56.75;;;33.55;;
70635;SDS011;58206;47.310;19.502;2022-09-25T11:44:47;5.50;;;2.50;;
70635;SDS011;58206;47.310;19.502;2022-09-25T11:47:57;6.17;;;2.80;;
70635;SDS011;58206;47.310;19.502;2022-09-25T11:50:56;10.45;;;4.00;;
70635;SDS011;58206;47.310;19.502;2022-09-25T11:56:47;9.43;;;7.15;;
70635;SDS011;58206;47.310;19.502;2022-09-25T12:22:02;5.22;;;2.50;;
70635;SDS011;58206;47.310;19.502;2022-09-25T12:24:51;5.47;;;2.20;;
70635;SDS011;58206;47.310;19.502;2022-09-25T12:30:28;4.50;;;1.93;;
70635;SDS011;58206;47.310;19.502;2022-09-25T12:33:17;5.15;;;2.05;;
70635;SDS011;58206;47.310;19.502;2022-09-25T12:36:11;5.38;;;1.95;;
70635;SDS011;58206;47.310;19.502;2022-09-25T12:39:45;4.65;;;1.80;;
70635;SDS011;58206;47.310;19.502;2022-09-25T12:42:09;9.55;;;3.50;;
70635;SDS011;58206;47.310;19.502;2022-09-25T12:48:22;5.90;;;2.15;;
70635;SDS011;58206;47.310;19.502;2022-09-25T12:53:59;12.85;;;4.72;;
70635;SDS011;58206;47.310;19.502;2022-09-25T12:59:33;8.20;;;2.80;;
70635;SDS011;58206;47.310;19.502;2022-09-25T13:02:34;7.50;;;2.30;;
70635;SDS011;58206;47.310;19.502;2022-09-25T13:05:32;10.65;;;3.63;;
70635;SDS011;58206;47.310;19.502;2022-09-25T13:08:21;19.10;;;5.88;;
70635;SDS011;58206;47.310;19.502;2022-09-25T13:11:13;17.90;;;10.52;;
70635;SDS011;58206;47.310;19.502;2022-09-25T13:13:58;18.93;;;7.93;;
70635;SDS011;58206;47.310;19.502;2022-09-25T13:16:45;28.40;;;7.63;;
70635;SDS011;58206;47.310;19.502;2022-09-25T13:19:31;21.08;;;6.57;;
70635;SDS011;58206;47.310;19.502;2022-09-25T13:22:21;13.10;;;4.30;;
70635;SDS011;58206;47.310;19.502;2022-09-25T13:25:13;15.18;;;4.95;;
70635;SDS011;58206;47.310;19.502;2022-09-25T13:28:05;21.07;;;6.47;;
70635;SDS011;58206;47.310;19.502;2022-09-25T13:36:33;7.72;;;2.83;;
70635;SDS011;58206;47.310;19.502;2022-09-25T13:48:09;6.65;;;2.13;;
70635;SDS011;58206;47.310;19.502;2022-09-25T13:53:59;5.13;;;2.42;;
70635;SDS011;58206;47.310;19.502;2022-09-25T13:56:46;11.07;;;3.97;;
70635;SDS011;58206;47.310;19.502;2022-09-25T13:59:36;5.50;;;2.30;;
70635;SDS011;58206;47.310;19.502;2022-09-25T14:02:25;5.30;;;2.40;;
70635;SDS011;58206;47.310;19.502;2022-09-25T14:05:17;5.90;;;2.30;;
70635;SDS011;58206;47.310;19.502;2022-09-25T14:08:06;10.02;;;3.30;;
70635;SDS011;58206;47.310;19.502;2022-09-25T14:10:52;9.00;;;3.23;;
70635;SDS011;58206;47.310;19.502;2022-09-25T14:13:38;8.15;;;3.10;;
70635;SDS011;58206;47.310;19.502;2022-09-25T14:16:30;7.70;;;2.60;;
70635;SDS011;58206;47.310;19.502;2022-09-25T14:19:16;5.93;;;2.60;;
70635;SDS011;58206;47.310;19.502;2022-09-25T14:22:02;10.07;;;5.47;;
70635;SDS011;58206;47.310;19.502;2022-09-25T14:24:47;7.00;;;3.53;;
70635;SDS011;58206;47.310;19.502;2022-09-25T14:27:33;9.23;;;3.92;;
70635;SDS011;58206;47.310;19.502;2022-09-25T14:30:17;13.02;;;4.20;;
70635;SDS011;58206;47.310;19.502;2022-09-25T14:39:23;6.40;;;3.70;;
70635;SDS011;58206;47.310;19.502;2022-09-25T14:42:48;21.88;;;10.00;;
70635;SDS011;58206;47.310;19.502;2022-09-25T14:48:18;14.63;;;6.90;;
70635;SDS011;58206;47.310;19.502;2022-09-25T14:51:05;15.75;;;7.30;;
70635;SDS011;58206;47.310;19.502;2022-09-25T14:53:57;16.90;;;9.60;;
70635;SDS011;58206;47.310;19.502;2022-09-25T14:56:42;24.65;;;12.00;;
70635;SDS011;58206;47.310;19.502;2022-09-25T14:59:42;24.05;;;12.02;;
70635;SDS011;58206;47.310;19.502;2022-09-25T15:02:30;18.27;;;8.32;;
70635;SDS011;58206;47.310;19.502;2022-09-25T15:05:23;26.63;;;12.70;;
70635;SDS011;58206;47.310;19.502;2022-09-25T15:08:44;18.17;;;9.30;;
70635;SDS011;58206;47.310;19.502;2022-09-25T15:11:23;19.23;;;10.60;;
70635;SDS011;58206;47.310;19.502;2022-09-25T15:14:15;25.45;;;12.95;;
70635;SDS011;58206;47.310;19.502;2022-09-25T15:17:00;25.05;;;12.13;;
70635;SDS011;58206;47.310;19.502;2022-09-25T15:20:04;29.45;;;14.10;;
70635;SDS011;58206;47.310;19.502;2022-09-25T15:23:07;47.40;;;22.13;;
70635;SDS011;58206;47.310;19.502;2022-09-25T15:25:53;52.53;;;23.63;;
70635;SDS011;58206;47.310;19.502;2022-09-25T15:28:38;50.03;;;23.67;;
70635;SDS011;58206;47.310;19.502;2022-09-25T15:31:24;37.67;;;17.70;;
70635;SDS011;58206;47.310;19.502;2022-09-25T15:34:12;27.83;;;14.13;;
70635;SDS011;58206;47.310;19.502;2022-09-25T15:40:00;23.75;;;11.70;;
70635;SDS011;58206;47.310;19.502;2022-09-25T15:42:51;24.50;;;12.27;;
70635;SDS011;58206;47.310;19.502;2022-09-25T15:45:37;25.88;;;12.63;;
70635;SDS011;58206;47.310;19.502;2022-09-25T15:48:23;20.85;;;11.00;;
70635;SDS011;58206;47.310;19.502;2022-09-25T15:51:13;23.40;;;11.50;;
70635;SDS011;58206;47.310;19.502;2022-09-25T15:54:00;16.98;;;9.35;;
70635;SDS011;58206;47.310;19.502;2022-09-25T15:56:45;15.05;;;8.63;;
70635;SDS011;58206;47.310;19.502;2022-09-25T15:59:35;11.90;;;7.22;;
70635;SDS011;58206;47.310;19.502;2022-09-25T16:02:46;15.00;;;8.38;;
70635;SDS011;58206;47.310;19.502;2022-09-25T16:05:50;13.13;;;8.00;;
70635;SDS011;58206;47.310;19.502;2022-09-25T16:08:35;14.55;;;7.88;;
70635;SDS011;58206;47.310;19.502;2022-09-25T16:11:20;16.73;;;8.88;;
70635;SDS011;58206;47.310;19.502;2022-09-25T16:14:19;14.88;;;9.15;;
70635;SDS011;58206;47.310;19.502;2022-09-25T16:17:06;16.08;;;10.38;;
70635;SDS011;58206;47.310;19.502;2022-09-25T16:20:03;16.73;;;11.07;;
70635;SDS011;58206;47.310;19.502;2022-09-25T16:22:51;18.23;;;12.00;;
70635;SDS011;58206;47.310;19.502;2022-09-25T16:25:42;32.25;;;16.80;;
70635;SDS011;58206;47.310;19.502;2022-09-25T16:28:28;38.40;;;20.88;;
70635;SDS011;58206;47.310;19.502;2022-09-25T16:31:15;43.53;;;22.33;;
70635;SDS011;58206;47.310;19.502;2022-09-25T16:34:03;38.67;;;19.67;;
70635;SDS011;58206;47.310;19.502;2022-09-25T16:36:48;38.28;;;20.27;;
70635;SDS011;58206;47.310;19.502;2022-09-25T16:39:35;23.25;;;13.65;;
70635;SDS011;58206;47.310;19.502;2022-09-25T16:47:58;31.40;;;17.03;;
70635;SDS011;58206;47.310;19.502;2022-09-25T16:50:43;34.10;;;18.13;;
70635;SDS011;58206;47.310;19.502;2022-09-25T16:53:28;17.48;;;10.48;;
70635;SDS011;58206;47.310;19.502;2022-09-25T16:56:18;24.40;;;14.55;;
70635;SDS011;58206;47.310;19.502;2022-09-25T16:59:07;20.58;;;12.32;;
70635;SDS011;58206;47.310;19.502;2022-09-25T17:02:00;17.63;;;11.20;;
70635;SDS011;58206;47.310;19.502;2022-09-25T17:04:47;15.13;;;9.73;;
70635;SDS011;58206;47.310;19.502;2022-09-25T17:07:33;14.13;;;9.23;;
70635;SDS011;58206;47.310;19.502;2022-09-25T17:10:19;24.60;;;13.60;;
70635;SDS011;58206;47.310;19.502;2022-09-25T17:13:04;60.45;;;29.33;;
70635;SDS011;58206;47.310;19.502;2022-09-25T17:15:48;41.40;;;22.27;;
70635;SDS011;58206;47.310;19.502;2022-09-25T17:18:33;38.00;;;20.73;;
70635;SDS011;58206;47.310;19.502;2022-09-25T17:21:17;23.35;;;13.90;;
70635;SDS011;58206;47.310;19.502;2022-09-25T17:24:03;18.85;;;12.43;;
70635;SDS011;58206;47.310;19.502;2022-09-25T17:26:47;16.42;;;11.93;;
70635;SDS011;58206;47.310;19.502;2022-09-25T17:29:32;22.97;;;14.50;;
70635;SDS011;58206;47.310;19.502;2022-09-25T17:32:19;20.33;;;13.43;;
70635;SDS011;58206;47.310;19.502;2022-09-25T17:35:25;18.98;;;11.38;;
70635;SDS011;58206;47.310;19.502;2022-09-25T17:38:08;15.13;;;9.82;;
70635;SDS011;58206;47.310;19.502;2022-09-25T17:40:55;14.98;;;9.35;;
70635;SDS011;58206;47.310;19.502;2022-09-25T17:43:40;18.73;;;10.57;;
70635;SDS011;58206;47.310;19.502;2022-09-25T17:46:25;18.90;;;11.35;;
70635;SDS011;58206;47.310;19.502;2022-09-25T17:49:09;18.33;;;10.90;;
70635;SDS011;58206;47.310;19.502;2022-09-25T17:51:54;20.23;;;11.18;;
70635;SDS011;58206;47.310;19.502;2022-09-25T17:54:38;18.90;;;11.30;;
70635;SDS011;58206;47.310;19.502;2022-09-25T17:57:22;18.00;;;11.67;;
70635;SDS011;58206;47.310;19.502;2022-09-25T18:00:07;35.83;;;16.63;;
70635;SDS011;58206;47.310;19.502;2022-09-25T18:02:51;28.42;;;15.10;;
70635;SDS011;58206;47.310;19.502;2022-09-25T18:05:36;22.42;;;13.65;;
70635;SDS011;58206;47.310;19.502;2022-09-25T18:08:20;22.70;;;13.05;;
70635;SDS011;58206;47.310;19.502;2022-09-25T18:11:05;25.83;;;14.30;;
70635;SDS011;58206;47.310;19.502;2022-09-25T18:13:53;23.80;;;12.05;;
70635;SDS011;58206;47.310;19.502;2022-09-25T18:16:39;19.77;;;11.10;;
70635;SDS011;58206;47.310;19.502;2022-09-25T18:19:24;18.95;;;11.10;;
70635;SDS011;58206;47.310;19.502;2022-09-25T18:22:27;17.15;;;10.25;;
70635;SDS011;58206;47.310;19.502;2022-09-25T18:25:12;17.10;;;10.57;;
70635;SDS011;58206;47.310;19.502;2022-09-25T18:27:56;18.10;;;11.05;;
70635;SDS011;58206;47.310;19.502;2022-09-25T18:30:40;20.42;;;12.05;;
70635;SDS011;58206;47.310;19.502;2022-09-25T18:33:25;21.42;;;12.00;;
70635;SDS011;58206;47.310;19.502;2022-09-25T18:36:10;19.92;;;13.02;;
70635;SDS011;58206;47.310;19.502;2022-09-25T18:38:54;19.47;;;12.10;;
70635;SDS011;58206;47.310;19.502;2022-09-25T18:41:38;17.90;;;10.80;;
70635;SDS011;58206;47.310;19.502;2022-09-25T18:44:25;19.02;;;10.93;;
70635;SDS011;58206;47.310;19.502;2022-09-25T18:47:10;17.10;;;10.25;;
70635;SDS011;58206;47.310;19.502;2022-09-25T18:49:54;18.27;;;10.80;;